Time;durP1;ratioP1;P1;durP2;ratioP2;P2;SDS_P1;SDS_P2;PMS_P1;PMS_P2;Temp;Humidity;BMP_temperature;BMP_pressure;BME280_temperature;BME280_humidity;BME280_pressure;Samples;Min_cycle;Max_cycle;Signal;HPM_P1;HPM_P2
2023/11/15 00:00:08;;;;;;;0.40;0.40;;;;;;;9.32;98.58;98618.56;5033285;28;19921;-70
2023/11/15 00:02:38;;;;;;;0.40;0.40;;;;;;;9.32;98.61;98626.22;5033628;28;20370;-69
2023/11/15 00:05:07;;;;;;;0.38;0.38;;;;;;;9.28;98.12;98624.56;5033595;28;20487;-72
2023/11/15 00:07:36;;;;;;;0.47;0.47;;;;;;;9.30;98.44;98627.94;5033199;28;20129;-72
2023/11/15 00:10:07;;;;;;;0.43;0.43;;;;;;;9.29;98.50;98626.25;5033144;28;20045;-70
2023/11/15 00:12:36;;;;;;;0.20;0.20;;;;;;;9.29;98.74;98616.06;5033569;28;20053;-70
2023/11/15 00:15:06;;;;;;;0.35;0.35;;;;;;;9.25;98.25;98613.56;5033159;28;20092;-71
2023/11/15 00:17:36;;;;;;;3.92;0.77;;;;;;;9.20;98.89;98610.25;5033475;28;20120;-69
2023/11/15 00:20:08;;;;;;;0.22;0.22;;;;;;;9.29;98.54;98625.38;5033104;28;20046;-72
2023/11/15 00:22:37;;;;;;;0.52;0.52;;;;;;;9.26;98.75;98625.44;5033465;28;20046;-69
2023/11/15 00:25:08;;;;;;;0.40;0.40;;;;;;;9.18;98.94;98610.28;5033052;28;20033;-69
2023/11/15 00:27:37;;;;;;;0.90;0.90;;;;;;;9.23;98.63;98621.25;5035869;28;20550;-72
2023/11/15 00:30:10;;;;;;;0.63;0.63;;;;;;;9.21;99.00;98622.13;5035942;28;20087;-72
2023/11/15 00:32:39;;;;;;;0.50;0.50;;;;;;;9.20;99.10;98625.50;5037450;28;20050;-71
2023/11/15 00:35:12;;;;;;;0.63;0.60;;;;;;;9.18;98.57;98628.09;5036833;28;20415;-71
2023/11/15 00:37:42;;;;;;;0.30;0.30;;;;;;;9.18;98.80;98617.91;5037352;28;20120;-71
2023/11/15 00:40:13;;;;;;;0.40;0.40;;;;;;;9.15;99.23;98627.25;5036505;28;20038;-70
2023/11/15 00:42:43;;;;;;;1.77;0.85;;;;;;;9.11;98.78;98631.56;5035646;28;20073;-70
2023/11/15 00:45:14;;;;;;;0.60;0.60;;;;;;;9.08;99.09;98636.69;5035477;28;20045;-72
2023/11/15 00:47:43;;;;;;;0.30;0.30;;;;;;;9.06;98.55;98643.50;5036929;28;20084;-71
2023/11/15 00:50:12;;;;;;;0.40;0.40;;;;;;;9.00;99.49;98633.38;5035429;28;20051;-69
2023/11/15 00:52:41;;;;;;;0.30;0.30;;;;;;;9.01;98.61;98624.91;5035241;28;20685;-69
2023/11/15 00:55:10;;;;;;;0.65;0.65;;;;;;;8.98;99.32;98631.72;5035530;28;20037;-69
2023/11/15 00:57:44;;;;;;;0.75;0.75;;;;;;;8.96;99.45;98651.25;5035316;28;20049;-71
2023/11/15 01:00:23;;;;;;;1.13;1.08;;;;;;;8.94;99.49;98637.69;5035072;28;20045;-70
2023/11/15 01:02:57;;;;;;;0.43;0.43;;;;;;;8.94;99.58;98641.09;5036675;28;20049;-71
2023/11/15 01:05:28;;;;;;;0.30;0.30;;;;;;;8.88;99.39;98638.59;5036570;28;20566;-69
2023/11/15 01:07:58;;;;;;;0.40;0.40;;;;;;;8.80;99.43;98614.97;5036540;28;20123;-72
2023/11/15 01:10:27;;;;;;;2.25;0.60;;;;;;;8.89;99.24;98632.66;5035127;28;20496;-72
2023/11/15 01:12:57;;;;;;;0.30;0.30;;;;;;;9.01;99.71;98652.88;5036428;28;20128;-69
2023/11/15 01:15:26;;;;;;;0.43;0.43;;;;;;;9.01;99.45;98652.88;5036090;28;20045;-71
2023/11/15 01:17:57;;;;;;;0.45;0.45;;;;;;;9.01;99.64;98660.53;5034981;28;20491;-72
2023/11/15 01:20:26;;;;;;;0.30;0.30;;;;;;;9.02;100.00;98672.38;5036114;28;20483;-72
2023/11/15 01:22:55;;;;;;;0.63;0.63;;;;;;;9.04;99.84;98691.03;5036212;28;20369;-71
2023/11/15 01:25:30;;;;;;;0.35;0.35;;;;;;;9.09;99.97;98691.84;5035887;28;20046;-71
2023/11/15 01:28:00;;;;;;;0.38;0.38;;;;;;;9.04;99.82;98675.75;5034998;28;20400;-72
2023/11/15 01:30:29;;;;;;;0.65;0.65;;;;;;;9.09;99.84;98673.16;5035942;28;20455;-71
2023/11/15 01:32:58;;;;;;;0.30;0.30;;;;;;;9.10;99.69;98675.69;5035884;28;20041;-71
2023/11/15 01:35:27;;;;;;;0.30;0.30;;;;;;;9.09;100.00;98674.00;5034828;28;20785;-72
2023/11/15 01:37:56;;;;;;;0.67;0.60;;;;;;;9.11;100.00;98685.03;5034789;28;20053;-71
2023/11/15 01:40:26;;;;;;;0.30;0.30;;;;;;;9.10;99.71;98673.13;5035546;28;20045;-71
2023/11/15 01:42:55;;;;;;;0.30;0.30;;;;;;;9.10;100.00;98654.47;5034662;28;20092;-73
2023/11/15 01:45:25;;;;;;;0.73;0.73;;;;;;;9.09;100.00;98666.38;5035304;28;20049;-69
2023/11/15 01:47:56;;;;;;;0.30;0.30;;;;;;;9.10;100.00;98675.69;5035780;28;20508;-71
2023/11/15 01:50:25;;;;;;;0.30;0.30;;;;;;;9.01;99.88;98655.44;5035503;28;20048;-71
2023/11/15 01:52:55;;;;;;;0.30;0.30;;;;;;;9.09;100.00;98674.00;5035162;28;20447;-70
2023/11/15 01:55:24;;;;;;;0.35;0.35;;;;;;;9.09;100.00;98679.09;5034443;28;20072;-72
2023/11/15 01:57:54;;;;;;;0.30;0.30;;;;;;;8.96;99.97;98652.09;5034469;28;20108;-71
2023/11/15 02:00:25;;;;;;;2.40;1.00;;;;;;;9.08;99.68;98656.19;5034363;28;20048;-68
2023/11/15 02:02:54;;;;;;;0.73;0.73;;;;;;;8.99;100.00;98636.78;5035397;28;20058;-71
2023/11/15 02:05:25;;;;;;;1.75;0.75;;;;;;;8.77;99.95;98579.38;5035234;28;20053;-71
2023/11/15 02:07:55;;;;;;;0.32;0.32;;;;;;;9.12;99.79;98648.50;5035168;28;20133;-69
2023/11/15 02:10:24;;;;;;;0.40;0.40;;;;;;;9.11;100.00;98648.53;5033895;28;20072;-70
2023/11/15 02:12:53;;;;;;;1.88;1.15;;;;;;;9.13;99.95;98650.19;5033819;28;20080;-70
2023/11/15 02:15:23;;;;;;;0.35;0.35;;;;;;;9.11;99.90;98646.84;5033862;28;20122;-70
2023/11/15 02:17:54;;;;;;;0.50;0.50;;;;;;;9.10;100.00;98655.31;5033744;28;20049;-71
2023/11/15 02:20:23;;;;;;;0.93;0.85;;;;;;;9.08;100.00;98656.19;5034282;28;20045;-70
2023/11/15 02:22:53;;;;;;;0.50;0.50;;;;;;;9.02;100.00;98646.91;5034083;28;20084;-69
2023/11/15 02:25:23;;;;;;;;;;;;;;;9.17;100.00;98662.03;5035264;28;20049;-72
2023/11/15 02:27:52;;;;;;;0.40;0.40;;;;;;;9.15;100.00;98658.66;5033645;28;20007;-68
2023/11/15 02:30:20;;;;;;;0.50;0.50;;;;;;;9.15;100.00;98634.91;5033460;28;20041;-69
2023/11/15 02:32:49;;;;;;;0.63;0.63;;;;;;;9.17;100.00;98635.72;5033688;28;20048;-71
2023/11/15 02:35:18;;;;;;;0.43;0.43;;;;;;;9.15;100.00;98635.75;5033375;28;20092;-70
2023/11/15 02:37:47;;;;;;;0.40;0.40;;;;;;;9.14;99.93;98631.50;5035182;28;20037;-71
2023/11/15 02:40:16;;;;;;;0.53;0.53;;;;;;;9.07;99.93;98629.91;5033775;28;20124;-70
2023/11/15 02:42:46;;;;;;;0.63;0.63;;;;;;;9.09;100.00;98633.28;5034661;28;20414;-68
2023/11/15 02:45:16;;;;;;;0.38;0.38;;;;;;;9.08;100.00;98631.59;5034421;28;20049;-69
2023/11/15 02:47:45;;;;;;;0.63;0.63;;;;;;;9.10;100.00;98645.16;5033632;28;20499;-69
2023/11/15 02:50:14;;;;;;;0.55;0.47;;;;;;;9.09;100.00;98648.56;5033600;28;20050;-69
2023/11/15 02:52:43;;;;;;;0.60;0.60;;;;;;;9.10;100.00;98634.13;5034170;28;20119;-68
2023/11/15 02:55:12;;;;;;;1.42;1.33;;;;;;;9.07;100.00;98637.53;5034153;28;20119;-70
2023/11/15 02:57:40;;;;;;;0.50;0.50;;;;;;;9.06;100.00;98643.50;5034452;28;20484;-69
2023/11/15 03:00:12;;;;;;;0.40;0.40;;;;;;;9.09;100.00;98643.47;5033190;28;20084;-70
2023/11/15 03:02:40;;;;;;;0.50;0.50;;;;;;;9.08;100.00;98646.88;5034111;28;20473;-70
2023/11/15 03:05:10;;;;;;;0.50;0.50;;;;;;;9.02;100.00;98621.47;5032839;28;20041;-68
2023/11/15 03:07:39;;;;;;;;;;;;;;;9.13;100.00;98627.28;5034359;28;20279;-68
2023/11/15 03:10:09;;;;;;;0.40;0.40;;;;;;;9.11;100.00;98631.56;5033858;28;19927;-71
2023/11/15 03:12:38;;;;;;;0.40;0.40;;;;;;;9.12;100.00;98648.50;5034111;28;20077;-69
2023/11/15 03:15:07;;;;;;;0.30;0.30;;;;;;;9.11;100.00;98649.38;5032613;28;20044;-71
2023/11/15 03:17:39;;;;;;;0.40;0.40;;;;;;;9.11;100.00;98651.94;5032716;28;20796;-70
2023/11/15 03:20:10;;;;;;;0.50;0.50;;;;;;;9.10;100.00;98640.06;5034123;28;20049;-70
2023/11/15 03:22:38;;;;;;;0.60;0.60;;;;;;;9.08;100.00;98629.06;5033724;28;20048;-69
2023/11/15 03:25:08;;;;;;;0.40;0.40;;;;;;;9.08;100.00;98651.09;5033975;28;20044;-70
2023/11/15 03:27:37;;;;;;;0.40;0.40;;;;;;;9.08;100.00;98646.88;5034029;28;20037;-69
2023/11/15 03:30:07;;;;;;;0.68;0.60;;;;;;;9.08;100.00;98653.66;5033565;28;20057;-71
2023/11/15 03:32:36;;;;;;;0.50;0.50;;;;;;;8.96;100.00;98624.09;5032484;28;20068;-69
2023/11/15 03:35:07;;;;;;;1.90;1.37;;;;;;;9.09;100.00;98640.94;5033556;28;20057;-71
2023/11/15 03:37:36;;;;;;;1.60;1.50;;;;;;;9.11;100.00;98646.00;5032516;28;20275;-71
2023/11/15 03:40:08;;;;;;;0.63;0.63;;;;;;;9.09;100.00;98637.53;5033944;28;20049;-71
2023/11/15 03:42:38;;;;;;;0.50;0.50;;;;;;;9.07;100.00;98627.34;5015919;28;20425;-71
2023/11/15 03:45:09;;;;;;;0.77;0.77;;;;;;;9.08;100.00;98620.56;5033373;28;20051;-69
2023/11/15 03:47:38;;;;;;;1.27;1.00;;;;;;;9.03;100.00;98633.34;5033472;28;20059;-69
2023/11/15 03:50:11;;;;;;;1.40;0.73;;;;;;;9.03;100.00;98627.41;5033667;28;20041;-70
2023/11/15 03:52:40;;;;;;;0.70;0.70;;;;;;;9.01;100.00;98634.22;5033279;28;20080;-69
2023/11/15 03:55:09;;;;;;;0.20;0.20;;;;;;;9.00;100.00;98627.47;5033396;28;20042;-69
2023/11/15 03:57:38;;;;;;;0.93;0.93;;;;;;;9.00;100.00;98622.38;5033510;28;20042;-69
2023/11/15 04:00:10;;;;;;;0.40;0.40;;;;;;;8.95;100.00;98622.41;5032525;28;20042;-70
2023/11/15 04:02:42;;;;;;;1.75;0.90;;;;;;;8.95;100.00;98635.13;5037668;28;20396;-69
2023/11/15 04:05:15;;;;;;;2.92;1.05;;;;;;;8.95;100.00;98635.13;5036504;28;20565;-69
2023/11/15 04:07:44;;;;;;;0.77;0.77;;;;;;;8.84;100.00;98593.72;5037395;28;20462;-70
2023/11/15 04:10:13;;;;;;;0.97;0.83;;;;;;;8.91;100.00;98602.94;5036142;28;20041;-68
2023/11/15 04:12:42;;;;;;;2.00;0.90;;;;;;;8.89;100.00;98608.91;5036358;28;20274;-71
2023/11/15 04:15:14;;;;;;;3.60;0.88;;;;;;;8.88;100.00;98607.25;5037402;28;20050;-70
2023/11/15 04:17:42;;;;;;;0.60;0.60;;;;;;;8.83;100.00;98599.66;5037662;28;20484;-71
2023/11/15 04:20:13;;;;;;;2.53;1.75;;;;;;;8.83;100.00;98599.66;5035944;28;20487;-70
2023/11/15 04:22:42;;;;;;;2.17;0.95;;;;;;;8.71;100.00;98571.78;5037138;28;20060;-70
2023/11/15 04:25:12;;;;;;;1.02;0.98;;;;;;;8.82;100.00;98595.44;5037014;28;20053;-72
2023/11/15 04:27:41;;;;;;;1.13;1.03;;;;;;;8.80;100.00;98584.44;5037126;28;20099;-70
2023/11/15 04:30:11;;;;;;;1.00;1.00;;;;;;;8.89;100.00;98594.50;5037408;28;20395;-69
2023/11/15 04:32:40;;;;;;;1.85;1.00;;;;;;;8.93;100.00;98605.47;5037202;28;20407;-69
2023/11/15 04:35:09;;;;;;;0.68;0.68;;;;;;;8.93;100.00;98608.88;5037242;28;20107;-72
2023/11/15 04:37:40;;;;;;;0.70;0.68;;;;;;;8.96;100.00;98613.91;5037251;28;20041;-69
2023/11/15 04:40:10;;;;;;;0.75;0.73;;;;;;;8.96;100.00;98621.56;5036833;28;20099;-71
2023/11/15 04:42:39;;;;;;;0.52;0.52;;;;;;;8.94;100.00;98607.16;5036970;28;20046;-70
2023/11/15 04:45:09;;;;;;;1.48;0.60;;;;;;;9.00;100.00;98618.09;5035378;28;20403;-70
2023/11/15 04:47:38;;;;;;;0.50;0.50;;;;;;;9.06;100.00;98623.16;5036519;28;20403;-71
2023/11/15 04:50:08;;;;;;;0.30;0.30;;;;;;;9.06;100.00;98623.16;5036305;28;20104;-70
2023/11/15 04:52:37;;;;;;;0.73;0.73;;;;;;;9.07;100.00;98624.81;5036435;28;20298;-69
2023/11/15 04:55:09;;;;;;;1.07;1.00;;;;;;;9.05;100.00;98616.34;5036772;28;20041;-70
2023/11/15 04:57:39;;;;;;;0.85;0.85;;;;;;;9.03;100.00;98607.91;5037316;28;20136;-70
2023/11/15 05:00:10;;;;;;;1.08;0.70;;;;;;;9.05;100.00;98606.19;5036391;28;20068;-69
2023/11/15 05:02:39;;;;;;;1.13;1.02;;;;;;;9.04;100.00;98603.66;5036154;28;20046;-71
2023/11/15 05:05:10;;;;;;;1.10;0.97;;;;;;;9.07;100.00;98604.44;5036675;28;20444;-70
2023/11/15 05:07:39;;;;;;;0.50;0.50;;;;;;;9.07;100.00;98599.34;5036273;28;20274;-69
2023/11/15 05:10:10;;;;;;;0.98;0.98;;;;;;;9.06;100.00;98591.75;5034992;28;20042;-70
2023/11/15 05:12:39;;;;;;;0.73;0.73;;;;;;;9.10;100.00;98599.31;5035538;28;20057;-69
2023/11/15 05:15:09;;;;;;;0.50;0.50;;;;;;;9.11;100.00;98590.00;5036168;28;20046;-69
2023/11/15 05:17:37;;;;;;;;;;;;;;;9.10;100.00;98594.25;5035495;28;20054;-68
2023/11/15 05:20:07;;;;;;;1.05;0.95;;;;;;;9.09;100.00;98602.75;5036293;28;19968;-70
2023/11/15 05:22:35;;;;;;;0.38;0.38;;;;;;;9.06;100.00;98600.25;5035771;28;20123;-69
2023/11/15 05:25:05;;;;;;;0.30;0.30;;;;;;;9.09;100.00;98600.22;5035912;28;20038;-70
2023/11/15 05:27:35;;;;;;;2.65;1.30;;;;;;;9.09;100.00;98602.75;5035917;28;20088;-70
2023/11/15 05:30:05;;;;;;;0.40;0.40;;;;;;;9.12;100.00;98602.69;5035960;28;20045;-68
2023/11/15 05:32:33;;;;;;;;;;;;;;;9.14;100.00;98605.25;5036102;28;20049;-71
2023/11/15 05:35:03;;;;;;;1.05;0.95;;;;;;;9.13;100.00;98593.38;5035706;28;19921;-70
2023/11/15 05:37:31;;;;;;;0.68;0.57;;;;;;;9.15;100.00;98605.22;5035715;28;20049;-69
2023/11/15 05:40:01;;;;;;;1.23;1.13;;;;;;;9.20;100.00;98595.81;5035648;28;20042;-71
2023/11/15 05:42:29;;;;;;;1.45;1.30;;;;;;;9.23;100.00;98595.78;5035645;28;20046;-70
2023/11/15 05:45:00;;;;;;;1.07;0.97;;;;;;;9.16;100.00;98594.19;5035486;28;20048;-68
2023/11/15 05:47:30;;;;;;;0.40;0.40;;;;;;;9.23;100.00;98611.06;5035871;28;20047;-69
2023/11/15 05:49:58;;;;;;;0.35;0.35;;;;;;;9.27;100.00;98607.59;5034500;28;20381;-70
2023/11/15 05:52:27;;;;;;;0.80;0.80;;;;;;;9.32;100.00;98616.03;5017610;28;20443;-69
2023/11/15 05:54:56;;;;;;;0.63;0.45;;;;;;;9.36;100.00;98614.25;5034499;28;20037;-70
2023/11/15 05:57:25;;;;;;;0.20;0.20;;;;;;;9.39;100.00;98610.00;5035617;28;20049;-68
2023/11/15 05:59:54;;;;;;;0.40;0.40;;;;;;;9.39;100.00;98611.69;5035507;28;20480;-68
2023/11/15 06:02:24;;;;;;;0.37;0.37;;;;;;;9.41;100.00;98609.97;5035072;28;20518;-70
2023/11/15 06:04:53;;;;;;;0.30;0.30;;;;;;;9.41;100.00;98623.53;5035345;28;20045;-69
2023/11/15 06:07:22;;;;;;;0.30;0.30;;;;;;;9.51;100.00;98631.03;5035371;28;20107;-69
2023/11/15 06:09:50;;;;;;;1.70;0.90;;;;;;;9.51;100.00;98620.84;5035042;28;20034;-71
2023/11/15 06:12:19;;;;;;;0.30;0.30;;;;;;;9.53;100.00;98635.25;5034992;28;20049;-69
2023/11/15 06:14:48;;;;;;;0.43;0.43;;;;;;;9.60;100.00;98638.59;5036002;28;20053;-70
2023/11/15 06:17:17;;;;;;;0.40;0.40;;;;;;;9.60;100.00;98626.66;5034794;28;20037;-69
2023/11/15 06:19:47;;;;;;;0.30;0.30;;;;;;;9.61;100.00;98637.69;5035056;28;20042;-68
2023/11/15 06:22:28;;;;;;;0.30;0.30;;;;;;;9.63;100.00;98646.16;5035095;28;20111;-71
2023/11/15 06:24:57;;;;;;;0.30;0.30;;;;;;;9.63;100.00;98641.06;5034113;28;20115;-70
2023/11/15 06:27:26;;;;;;;0.30;0.30;;;;;;;9.64;100.00;98652.97;5035304;28;20507;-70
2023/11/15 06:29:55;;;;;;;0.30;0.30;;;;;;;9.65;100.00;98659.72;5033535;28;20064;-70
2023/11/15 06:32:24;;;;;;;;;;;;;;;9.68;100.00;98674.97;5035320;28;20053;-72
2023/11/15 06:34:54;;;;;;;0.28;0.28;;;;;;;9.71;100.00;98680.03;5034823;28;20374;-71
2023/11/15 06:37:23;;;;;;;0.30;0.30;;;;;;;9.72;100.00;98682.53;5034810;28;20458;-71
2023/11/15 06:39:52;;;;;;;0.50;0.50;;;;;;;9.65;100.00;98664.81;5034778;28;20406;-71
2023/11/15 06:42:21;;;;;;;1.35;1.20;;;;;;;9.75;99.81;98681.66;5034836;28;20037;-72
2023/11/15 06:44:50;;;;;;;0.40;0.40;;;;;;;9.74;99.65;98680.00;5034984;28;20092;-70
2023/11/15 06:47:24;;;;;;;0.27;0.27;;;;;;;9.78;100.00;98671.44;5036626;28;20053;-71
2023/11/15 06:49:54;;;;;;;0.40;0.40;;;;;;;9.83;99.67;98674.78;5053315;28;20322;-71
2023/11/15 06:52:26;;;;;;;0.30;0.30;;;;;;;9.85;99.85;98678.13;5054108;28;20072;-70
2023/11/15 06:54:55;;;;;;;0.30;0.30;;;;;;;9.91;99.46;98675.50;5054404;28;20071;-71
2023/11/15 06:57:24;;;;;;;0.30;0.30;;;;;;;9.98;99.49;98694.94;5045525;28;20049;-68
2023/11/15 06:59:53;;;;;;;0.30;0.30;;;;;;;10.01;99.13;98692.34;5053993;28;20037;-72
2023/11/15 07:02:22;;;;;;;0.30;0.30;;;;;;;10.11;98.70;98699.00;5053923;28;20033;-70
2023/11/15 07:04:52;;;;;;;0.30;0.30;;;;;;;10.11;98.08;98701.53;5052886;28;20294;-73
2023/11/15 07:07:23;;;;;;;0.73;0.70;;;;;;;10.20;97.30;98710.81;5052309;28;20079;-72
2023/11/15 07:09:52;;;;;;;0.73;0.73;;;;;;;10.05;96.52;98684.63;5037156;28;20068;-72
2023/11/15 07:12:24;;;;;;;4.10;1.00;;;;;;;10.21;96.03;98710.78;5051169;28;20041;-73
2023/11/15 07:14:53;;;;;;;0.30;0.30;;;;;;;10.23;95.48;98720.94;5053204;28;20053;-71
2023/11/15 07:17:21;;;;;;;0.25;0.25;;;;;;;10.23;95.34;98719.25;5053526;28;20143;-69
2023/11/15 07:19:50;;;;;;;0.52;0.40;;;;;;;10.28;95.23;98737.00;5053362;28;20128;-74
2023/11/15 07:22:19;;;;;;;0.38;0.38;;;;;;;10.34;94.86;98732.66;5051805;28;20056;-69
2023/11/15 07:24:51;;;;;;;0.40;0.40;;;;;;;10.35;94.82;98726.69;5052194;28;20049;-74
2023/11/15 07:27:23;;;;;;;0.88;0.70;;;;;;;10.29;94.32;98720.88;5052468;28;20045;-72
2023/11/15 07:29:53;;;;;;;0.30;0.30;;;;;;;10.21;94.07;98713.31;5053455;28;20059;-70
2023/11/15 07:32:25;;;;;;;0.38;0.38;;;;;;;10.34;93.36;98727.56;5053715;28;20450;-72
2023/11/15 07:34:54;;;;;;;0.35;0.35;;;;;;;10.41;93.03;98747.03;5052241;28;20124;-71
2023/11/15 07:37:23;;;;;;;0.30;0.30;;;;;;;10.44;92.60;98751.22;5050432;28;20422;-70
2023/11/15 07:39:53;;;;;;;0.30;0.30;;;;;;;10.37;92.38;98736.88;5053586;28;20044;-71
2023/11/15 07:42:22;;;;;;;0.80;0.80;;;;;;;10.46;92.09;98754.59;5053205;28;20286;-69
2023/11/15 07:44:51;;;;;;;0.38;0.38;;;;;;;10.42;91.85;98737.66;5053486;28;20399;-70
2023/11/15 07:47:20;;;;;;;2.10;1.88;;;;;;;10.47;91.92;98757.13;5052412;28;20495;-72
2023/11/15 07:49:49;;;;;;;0.75;0.63;;;;;;;10.45;91.62;98758.00;5053131;28;20098;-72
2023/11/15 07:52:18;;;;;;;0.57;0.57;;;;;;;10.31;91.46;98740.38;5052966;28;20037;-72
2023/11/15 07:54:48;;;;;;;0.22;0.22;;;;;;;10.43;91.43;98768.25;5052340;28;20064;-71
2023/11/15 07:57:21;;;;;;;0.28;0.28;;;;;;;10.43;91.61;98759.75;5052209;28;20095;-73
2023/11/15 07:59:49;;;;;;;0.30;0.30;;;;;;;10.42;91.46;98769.09;5053272;28;20429;-72
2023/11/15 08:02:18;;;;;;;0.25;0.25;;;;;;;10.33;91.36;98759.03;5053823;28;20483;-72
2023/11/15 08:04:47;;;;;;;0.30;0.30;;;;;;;10.40;91.17;98781.03;5051933;28;20045;-71
2023/11/15 08:07:16;;;;;;;0.50;0.50;;;;;;;10.36;90.60;98763.25;5053262;28;20029;-71
2023/11/15 08:09:47;;;;;;;0.30;0.30;;;;;;;10.26;90.35;98757.44;5053021;28;20044;-71
2023/11/15 08:12:18;;;;;;;0.30;0.30;;;;;;;10.39;90.12;98789.53;5053608;28;20063;-71
2023/11/15 08:14:48;;;;;;;0.40;0.40;;;;;;;10.38;89.84;98797.22;5042073;28;20132;-72
2023/11/15 08:17:17;;;;;;;0.57;0.57;;;;;;;10.37;89.73;98800.63;5038320;28;20037;-73
2023/11/15 08:19:45;;;;;;;0.20;0.20;;;;;;;10.38;89.84;98799.78;5051085;28;20476;-72
2023/11/15 08:22:23;;;;;;;0.68;0.68;;;;;;;10.34;89.47;98801.50;5052378;28;20069;-71
2023/11/15 08:24:52;;;;;;;2.13;0.57;;;;;;;10.40;89.24;98810.81;5053030;28;20049;-72
2023/11/15 08:27:21;;;;;;;0.28;0.28;;;;;;;10.40;89.41;98816.75;5052973;28;20282;-71
2023/11/15 08:29:52;;;;;;;0.40;0.40;;;;;;;10.41;88.96;98822.69;5041253;28;20228;-73
2023/11/15 08:32:21;;;;;;;0.40;0.40;;;;;;;10.40;89.18;98826.97;5033557;28;20392;-72
2023/11/15 08:34:50;;;;;;;0.30;0.30;;;;;;;10.41;89.21;98833.75;5037230;28;20535;-71
2023/11/15 08:37:19;;;;;;;0.40;0.40;;;;;;;10.36;89.13;98824.47;5052795;28;20033;-71
2023/11/15 08:39:47;;;;;;;0.30;0.30;;;;;;;10.40;89.34;98844.81;5052288;28;20041;-71
2023/11/15 08:42:16;;;;;;;0.30;0.30;;;;;;;10.38;89.51;98850.78;5052775;28;20041;-72
2023/11/15 08:44:47;;;;;;;0.20;0.20;;;;;;;10.37;89.33;98855.03;5050880;28;20444;-72
2023/11/15 08:47:17;;;;;;;0.20;0.20;;;;;;;10.36;89.52;98860.19;5052082;28;20076;-72
2023/11/15 08:49:46;;;;;;;0.30;0.30;;;;;;;10.34;89.63;98872.09;5055750;28;20387;-72
2023/11/15 08:52:17;;;;;;;0.25;0.25;;;;;;;10.33;89.45;98855.09;5056576;28;20045;-72
2023/11/15 08:54:46;;;;;;;0.30;0.30;;;;;;;10.29;89.20;98869.63;5055486;28;20037;-71
2023/11/15 08:57:15;;;;;;;0.30;0.30;;;;;;;10.25;89.45;98874.75;5040766;28;20086;-72
2023/11/15 08:59:45;;;;;;;0.33;0.33;;;;;;;10.23;89.48;98879.88;5036663;28;20033;-70
2023/11/15 09:02:15;;;;;;;0.30;0.30;;;;;;;10.21;89.34;98880.75;5036603;28;20057;-71
2023/11/15 09:04:45;;;;;;;0.20;0.20;;;;;;;10.21;89.79;98888.41;5038078;28;20041;-71
2023/11/15 09:07:14;;;;;;;0.60;0.50;;;;;;;10.17;89.59;98874.03;5056503;28;20051;-72
2023/11/15 09:09:43;;;;;;;0.93;0.93;;;;;;;10.13;89.90;98887.66;5056130;28;20491;-71
2023/11/15 09:12:13;;;;;;;;;;;;;;;10.13;89.92;98898.69;5047676;28;20483;-71
2023/11/15 09:14:43;;;;;;;0.75;0.75;;;;;;;10.15;89.69;98894.41;5040064;28;19924;-70
2023/11/15 09:17:16;;;;;;;5.90;1.95;;;;;;;10.16;89.99;98895.28;5045114;28;20040;-70
2023/11/15 09:19:49;;;;;;;0.22;0.22;;;;;;;10.15;90.22;98906.34;5051157;28;20033;-71
2023/11/15 09:22:18;;;;;;;0.20;0.20;;;;;;;10.16;90.48;98911.41;5036163;28;20579;-71
2023/11/15 09:24:46;;;;;;;0.32;0.32;;;;;;;10.06;90.42;98897.03;5035918;28;20041;-70
2023/11/15 09:27:22;;;;;;;0.30;0.30;;;;;;;10.19;90.75;98920.75;5045633;28;20047;-71
2023/11/15 09:29:51;;;;;;;0.40;0.40;;;;;;;10.23;90.43;98923.22;5054344;28;20041;-69
2023/11/15 09:32:20;;;;;;;0.20;0.20;;;;;;;10.23;91.05;98924.94;5055691;28;20060;-71
2023/11/15 09:34:50;;;;;;;0.32;0.32;;;;;;;9.98;90.54;98878.47;5055213;28;20045;-71
2023/11/15 09:37:19;;;;;;;0.30;0.30;;;;;;;10.29;90.65;98932.53;5054749;28;20044;-71
2023/11/15 09:39:47;;;;;;;0.43;0.43;;;;;;;10.31;90.83;98934.19;5055576;28;20053;-71
2023/11/15 09:42:19;;;;;;;0.63;0.63;;;;;;;10.33;90.96;98935.03;5055829;28;20107;-70
2023/11/15 09:44:49;;;;;;;0.43;0.43;;;;;;;10.33;90.67;98937.56;5055592;28;20044;-71
2023/11/15 09:47:17;;;;;;;0.30;0.30;;;;;;;10.35;90.31;98930.75;5054305;28;20037;-71
2023/11/15 09:49:49;;;;;;;0.38;0.38;;;;;;;10.39;90.67;98942.59;5055182;28;20064;-72
2023/11/15 09:52:19;;;;;;;0.57;0.57;;;;;;;10.44;90.43;98945.94;5055465;28;20095;-72
2023/11/15 09:54:49;;;;;;;0.28;0.28;;;;;;;10.48;90.69;98945.06;5055503;28;20076;-72
2023/11/15 09:57:21;;;;;;;0.32;0.32;;;;;;;10.52;90.56;98949.25;5049835;28;20048;-71
2023/11/15 09:59:49;;;;;;;0.38;0.38;;;;;;;10.59;90.57;98943.19;5046641;28;20474;-71
2023/11/15 10:02:35;;;;;;;0.38;0.38;;;;;;;10.64;90.27;98949.09;5054209;28;20509;-72
2023/11/15 10:05:20;;;;;;;0.43;0.43;;;;;;;10.67;90.20;98943.94;5055274;28;20040;-71
2023/11/15 10:07:54;;;;;;;0.20;0.20;;;;;;;10.68;89.99;98909.03;5053879;28;20041;-71
2023/11/15 10:10:24;;;;;;;0.30;0.30;;;;;;;10.69;89.76;98942.22;5054923;28;20103;-71
2023/11/15 10:12:54;;;;;;;0.30;0.30;;;;;;;10.73;89.32;98941.31;5055468;28;20407;-71
2023/11/15 10:15:33;;;;;;;0.40;0.40;;;;;;;10.83;89.50;98947.13;5054838;28;20053;-71
2023/11/15 10:18:03;;;;;;;0.30;0.30;;;;;;;10.92;89.40;98948.72;5053836;28;20063;-72
2023/11/15 10:20:33;;;;;;;0.40;0.40;;;;;;;11.08;89.47;98950.19;5055058;28;20131;-71
2023/11/15 10:23:03;;;;;;;0.30;0.30;;;;;;;10.92;89.06;98895.94;5053904;28;20052;-72
2023/11/15 10:25:47;;;;;;;0.20;0.20;;;;;;;11.40;88.86;98940.31;5035982;28;20049;-71
2023/11/15 10:28:17;;;;;;;0.40;0.40;;;;;;;11.50;88.38;98954.63;5034581;28;20168;-72
2023/11/15 10:30:50;;;;;;;0.30;0.30;;;;;;;11.53;88.00;98962.25;5034567;28;20037;-72
2023/11/15 10:33:20;;;;;;;0.40;0.40;;;;;;;11.53;87.72;98964.81;5034779;28;20069;-72
2023/11/15 10:35:49;;;;;;;0.30;0.30;;;;;;;11.48;87.28;98961.47;5034887;28;20049;-73
2023/11/15 10:38:23;;;;;;;0.30;0.30;;;;;;;11.53;87.14;98969.91;5033797;28;20294;-72
2023/11/15 10:40:54;;;;;;;7.20;6.32;;;;;;;11.73;86.89;98967.94;5048563;28;20399;-74
2023/11/15 10:43:23;;;;;;;0.70;0.70;;;;;;;11.84;86.61;98960.91;5048879;28;20033;-71
2023/11/15 10:45:55;;;;;;;0.50;0.50;;;;;;;11.97;85.92;98964.91;5052497;28;20098;-71
2023/11/15 10:48:26;;;;;;;0.40;0.40;;;;;;;12.07;85.91;98958.78;5037188;28;20506;-71
2023/11/15 10:51:00;;;;;;;0.30;0.30;;;;;;;12.19;85.52;98956.88;5034364;28;20108;-71
2023/11/15 10:53:30;;;;;;;0.30;0.30;;;;;;;12.34;84.75;98951.44;5035690;28;20056;-72
2023/11/15 10:56:00;;;;;;;0.45;0.45;;;;;;;12.53;84.60;98955.31;5051696;28;20446;-72
2023/11/15 10:58:30;;;;;;;0.40;0.40;;;;;;;12.72;84.02;98961.75;5053987;28;20128;-72
2023/11/15 11:01:01;;;;;;;0.25;0.25;;;;;;;12.46;81.79;98889.78;5054315;28;20096;-72
2023/11/15 11:03:30;;;;;;;0.60;0.60;;;;;;;12.79;81.78;98930.88;5053949;28;20103;-73
2023/11/15 11:06:06;;;;;;;0.40;0.40;;;;;;;13.04;81.15;98915.81;5034371;28;20484;-72
2023/11/15 11:08:45;;;;;;;0.30;0.30;;;;;;;13.27;80.78;98917.84;5033675;28;20099;-76
2023/11/15 11:11:22;;;;;;;0.40;0.40;;;;;;;13.34;79.84;98898.91;5033668;28;20049;-70
2023/11/15 11:14:12;;;;;;;0.20;0.20;;;;;;;13.30;79.43;98903.25;5049477;28;20051;-74
2023/11/15 11:16:41;;;;;;;0.30;0.30;;;;;;;13.17;78.78;98901.84;5053961;28;20079;-75
2023/11/15 11:19:11;;;;;;;2.28;1.00;;;;;;;13.10;78.83;98909.72;5053754;28;20037;-71
2023/11/15 11:22:04;;;;;;;0.22;0.22;;;;;;;13.22;78.57;98910.25;5053696;28;20049;-70
2023/11/15 11:24:36;;;;;;;0.40;0.40;;;;;;;13.25;77.93;98889.69;5034005;28;20053;-71
2023/11/15 11:27:33;;;;;;;0.35;0.35;;;;;;;13.33;77.03;98921.13;5041447;28;20055;-74
2023/11/15 11:30:14;;;;;;;0.40;0.40;;;;;;;13.16;76.64;98941.16;5047495;28;20399;-70
2023/11/15 11:32:47;;;;;;;0.30;0.30;;;;;;;13.24;76.84;98946.97;5052824;28;20127;-69
2023/11/15 11:35:36;;;;;;;0.30;0.30;;;;;;;13.52;76.65;98948.84;5053880;28;20045;-73
2023/11/15 11:38:06;;;;;;;0.50;0.50;;;;;;;13.78;75.55;98954.19;5049071;28;20525;-70
2023/11/15 11:40:38;;;;;;;0.30;0.30;;;;;;;13.88;75.03;98965.91;5045989;28;20824;-73
2023/11/15 11:43:16;;;;;;;2.67;2.05;;;;;;;14.20;75.04;98967.63;5053218;28;20391;-73
2023/11/15 11:45:46;;;;;;;0.40;0.40;;;;;;;14.33;73.80;98986.97;5053668;28;20111;-73
2023/11/15 11:48:20;;;;;;;0.30;0.30;;;;;;;14.22;72.99;98987.25;5052418;28;20052;-73
2023/11/15 11:50:58;;;;;;;0.40;0.40;;;;;;;14.07;72.63;98996.19;5052301;28;20049;-72